createdAt,value
2016-05-06T00:00:39.806Z,0
2016-05-06T00:01:27.105Z,0
2016-05-06T00:02:27.562Z,0
2016-05-06T00:03:39.800Z,0
2016-05-06T00:04:39.880Z,0
2016-05-06T00:05:46.397Z,0
2016-05-06T00:06:46.385Z,0
2016-05-06T00:07:58.496Z,0
2016-05-06T00:08:52.906Z,0
2016-05-06T00:09:58.565Z,0
2016-05-06T00:10:28.114Z,0
2016-05-06T00:11:27.210Z,0
2016-05-06T00:12:58.605Z,0
2016-05-06T00:13:30.310Z,0
2016-05-06T00:14:30.454Z,0
2016-05-06T00:15:30.409Z,0
2016-05-06T00:16:36.662Z,0
2016-05-06T00:17:36.804Z,0
2016-05-06T00:18:30.261Z,0
2016-05-06T00:19:30.263Z,0
2016-05-06T00:20:30.453Z,0
2016-05-06T00:21:30.435Z,0
2016-05-06T00:22:30.358Z,0
2016-05-06T00:23:43.205Z,0
2016-05-06T00:24:30.520Z,0
2016-05-06T00:25:43.257Z,0
2016-05-06T00:26:30.401Z,0
2016-05-06T00:27:49.622Z,0
2016-05-06T00:28:33.421Z,0
2016-05-06T00:29:33.596Z,0
2016-05-06T00:30:33.630Z,0
2016-05-06T00:31:52.945Z,0
2016-05-06T00:32:33.651Z,0
2016-05-06T00:33:33.701Z,0
2016-05-06T00:34:41.203Z,0
2016-05-06T00:35:39.848Z,0
2016-05-06T00:36:46.475Z,0
2016-05-06T00:37:33.758Z,0
2016-05-06T00:38:35.198Z,0
2016-05-06T00:39:39.904Z,0
2016-05-06T00:40:33.969Z,0
2016-05-06T00:41:46.550Z,0
2016-05-06T00:42:33.928Z,0
2016-05-06T00:43:52.900Z,0
2016-05-06T00:44:33.871Z,0
2016-05-06T00:45:33.889Z,0
2016-05-06T00:46:33.844Z,0
2016-05-06T00:47:33.597Z,0
2016-05-06T00:48:33.928Z,0
2016-05-06T00:49:40.228Z,0
2016-05-06T00:50:33.808Z,0
2016-05-06T00:51:53.202Z,0
2016-05-06T00:52:34.736Z,0
2016-05-06T00:53:33.849Z,0
2016-05-06T00:54:46.773Z,0
2016-05-06T00:55:35.401Z,0
2016-05-06T00:56:34.060Z,0
2016-05-06T00:57:46.671Z,0
2016-05-06T00:58:46.705Z,0
2016-05-06T00:59:34.145Z,0
2016-05-06T01:00:46.883Z,0
2016-05-06T01:01:34.167Z,0
2016-05-06T01:02:34.185Z,0
2016-05-06T01:03:46.937Z,0
2016-05-06T01:04:34.190Z,0
2016-05-06T01:05:53.287Z,0
2016-05-06T01:06:34.884Z,0
2016-05-06T01:08:36.842Z,0
2016-05-06T01:08:49.326Z,0
2016-05-06T01:09:49.095Z,0
2016-05-06T01:11:01.987Z,0
2016-05-06T01:12:02.287Z,0
2016-05-06T01:12:49.399Z,0
2016-05-06T01:14:08.481Z,0
2016-05-06T01:15:02.186Z,0
2016-05-06T01:15:49.470Z,0
2016-05-06T01:17:08.738Z,0
2016-05-06T01:17:49.506Z,0
2016-05-06T01:18:49.509Z,0
2016-05-06T01:19:49.372Z,0
2016-05-06T01:21:02.296Z,0
2016-05-06T01:21:49.860Z,0
2016-05-06T01:23:02.161Z,0
2016-05-06T01:23:49.429Z,0
2016-05-06T01:25:08.885Z,0
2016-05-06T01:25:56.043Z,0
2016-05-06T01:27:52.252Z,0
2016-05-06T01:28:07.987Z,0
2016-05-06T01:29:07.974Z,0
2016-05-06T01:30:07.992Z,0
2016-05-06T01:31:07.854Z,0
2016-05-06T01:32:08.029Z,0
2016-05-06T01:33:08.062Z,0
2016-05-06T01:34:08.065Z,0
2016-05-06T01:35:08.005Z,0
2016-05-06T01:36:08.712Z,0
2016-05-06T01:37:20.823Z,0
2016-05-06T01:38:09.544Z,0
2016-05-06T01:39:27.473Z,0
2016-05-06T01:40:08.629Z,0
2016-05-06T01:41:33.852Z,0
2016-05-06T01:42:08.227Z,0
2016-05-06T01:43:08.090Z,0
2016-05-06T01:44:08.217Z,0
2016-05-06T01:45:15.142Z,0
2016-05-06T01:46:20.863Z,0
2016-05-06T01:47:08.288Z,0
2016-05-06T01:49:05.262Z,0
2016-05-06T01:49:17.919Z,0
2016-05-06T01:50:30.735Z,0
2016-05-06T01:51:19.407Z,0
2016-05-06T01:52:37.336Z,0
2016-05-06T01:53:17.992Z,0
2016-05-06T01:54:18.010Z,0
2016-05-06T01:55:18.043Z,0
2016-05-06T01:56:18.078Z,0
2016-05-06T01:57:19.486Z,0
2016-05-06T01:58:24.038Z,0
2016-05-06T01:59:19.523Z,0
2016-05-06T02:00:30.857Z,0
2016-05-06T02:01:17.826Z,0
2016-05-06T02:02:43.846Z,0
2016-05-06T02:03:27.661Z,0
2016-05-06T02:04:27.696Z,0
2016-05-06T02:05:27.714Z,0
2016-05-06T02:06:27.560Z,0
2016-05-06T02:07:34.000Z,0
2016-05-06T02:08:28.190Z,0
2016-05-06T02:09:40.568Z,0
2016-05-06T02:10:27.773Z,0
2016-05-06T02:11:27.776Z,0
2016-05-06T02:12:40.592Z,0
2016-05-06T02:13:34.111Z,0
2016-05-06T02:14:27.691Z,0
2016-05-06T02:15:27.694Z,0
2016-05-06T02:16:40.650Z,0
2016-05-06T02:17:27.903Z,0
2016-05-06T02:18:47.124Z,0
2016-05-06T02:19:27.783Z,0
2016-05-06T02:21:24.913Z,0
2016-05-06T02:21:37.600Z,0
2016-05-06T02:22:37.603Z,0
2016-05-06T02:23:37.609Z,0
2016-05-06T02:24:37.628Z,0
2016-05-06T02:25:38.350Z,0
2016-05-06T02:26:50.509Z,0
2016-05-06T02:27:37.901Z,0
2016-05-06T02:28:37.529Z,0
2016-05-06T02:29:37.703Z,0
2016-05-06T02:30:37.582Z,0
2016-05-06T02:31:37.741Z,0
2016-05-06T02:32:37.758Z,0
2016-05-06T02:33:37.621Z,0
2016-05-06T02:34:50.530Z,0
2016-05-06T02:35:37.830Z,0
2016-05-06T02:36:37.847Z,0
2016-05-06T02:37:37.867Z,0
2016-05-06T02:38:37.853Z,0
2016-05-06T02:39:38.325Z,0
2016-05-06T02:40:39.718Z,0
2016-05-06T02:41:37.938Z,0
2016-05-06T02:42:50.645Z,0
2016-05-06T02:43:37.977Z,0
2016-05-06T02:44:37.947Z,0
2016-05-06T02:45:37.996Z,0
2016-05-06T02:46:50.719Z,0
2016-05-06T02:47:37.893Z,0
2016-05-06T02:48:57.098Z,0
2016-05-06T02:49:38.054Z,0
2016-05-06T02:51:50.576Z,0
2016-05-06T02:52:47.718Z,0
2016-05-06T02:53:47.629Z,0
2016-05-06T02:54:54.005Z,4
2016-05-06T02:55:48.306Z,4
2016-05-06T02:56:47.792Z,0
2016-05-06T02:57:47.654Z,0
2016-05-06T02:58:47.892Z,0
2016-05-06T02:59:48.051Z,4
2016-05-06T03:00:47.865Z,4
2016-05-06T03:01:47.742Z,0
2016-05-06T03:02:47.887Z,4
2016-05-06T03:04:00.639Z,4
2016-05-06T03:04:47.923Z,4
2016-05-06T03:06:07.144Z,4
2016-05-06T03:06:47.803Z,4
2016-05-06T03:08:13.478Z,8
2016-05-06T03:08:47.855Z,4
2016-05-06T03:09:47.827Z,8
2016-05-06T03:10:48.236Z,8
2016-05-06T03:11:48.224Z,12
2016-05-06T03:12:48.257Z,12
2016-05-06T03:13:54.338Z,12
2016-05-06T03:14:47.949Z,16
2016-05-06T03:17:16.580Z,20
2016-05-06T03:18:16.818Z,24
2016-05-06T03:19:23.054Z,28
2016-05-06T03:20:22.448Z,32
2016-05-06T03:20:51.216Z,32
2016-05-06T03:23:04.143Z,44
2016-05-06T03:23:51.240Z,56
2016-05-06T03:25:10.462Z,64
2016-05-06T03:25:52.167Z,68
2016-05-06T03:26:51.170Z,80
2016-05-06T03:27:51.298Z,92
2016-05-06T03:28:51.331Z,104
2016-05-06T03:29:51.178Z,116
2016-05-06T03:30:52.759Z,132
2016-05-06T03:32:04.120Z,152
2016-05-06T03:32:52.655Z,168
2016-05-06T03:34:04.220Z,184
2016-05-06T03:34:51.425Z,196
2016-05-06T03:36:10.631Z,212
2016-05-06T03:36:51.931Z,220
2016-05-06T03:37:51.372Z,232
2016-05-06T03:39:04.233Z,248
2016-05-06T03:39:52.314Z,264
2016-05-06T03:42:01.312Z,304
2016-05-06T03:42:33.299Z,320
2016-05-06T03:43:33.212Z,340
2016-05-06T03:44:46.072Z,376
2016-05-06T03:45:33.247Z,396
2016-05-06T03:46:45.844Z,436
2016-05-06T03:47:34.550Z,464
2016-05-06T03:48:52.552Z,512
2016-05-06T03:49:52.508Z,552
2016-05-06T03:50:33.166Z,576
2016-05-06T03:52:35.922Z,668
2016-05-06T03:53:08.047Z,676
2016-05-06T03:53:48.674Z,724
2016-05-06T03:55:08.288Z,780
2016-05-06T03:55:55.134Z,840
2016-05-06T03:56:52.246Z,884
2016-05-06T03:58:11.467Z,940
2016-05-06T03:58:58.579Z,980
2016-05-06T04:00:18.270Z,1048
2016-05-06T04:00:53.741Z,1072
2016-05-06T04:02:23.634Z,1156
2016-05-06T04:03:05.152Z,1192
2016-05-06T04:04:23.656Z,1256
2016-05-06T04:04:58.673Z,1284
2016-05-06T04:06:23.535Z,1364
2016-05-06T04:07:07.492Z,1416
2016-05-06T04:08:07.557Z,1488
2016-05-06T04:09:07.356Z,1572
2016-05-06T04:10:07.577Z,1648
2016-05-06T04:11:07.440Z,1716
2016-05-06T04:12:08.847Z,1784
2016-05-06T04:13:13.851Z,1856
2016-05-06T04:14:20.182Z,1948
2016-05-06T04:15:26.828Z,2064
2016-05-06T04:16:33.315Z,2208
2016-05-06T04:17:38.818Z,2344
2016-05-06T04:18:39.554Z,2468
2016-05-06T04:19:38.995Z,2568
2016-05-06T04:20:08.324Z,2604
2016-05-06T04:21:07.747Z,2664
2016-05-06T04:22:08.360Z,2688
2016-05-06T04:23:08.409Z,2700
2016-05-06T04:24:20.521Z,2712
2016-05-06T04:25:08.399Z,2724
2016-05-06T04:26:07.667Z,2752
2016-05-06T04:27:07.826Z,2796
2016-05-06T04:28:07.688Z,2864
2016-05-06T04:29:20.379Z,2976
2016-05-06T04:30:07.896Z,3068
2016-05-06T04:31:27.121Z,3216
2016-05-06T04:32:36.390Z,3320
2016-05-06T04:33:46.048Z,3448
2016-05-06T04:34:20.361Z,3556
2016-05-06T04:36:22.960Z,3728
2016-05-06T04:37:00.978Z,3768
2016-05-06T04:37:35.465Z,3800
2016-05-06T04:38:35.358Z,3844
2016-05-06T04:39:35.580Z,3860
2016-05-06T04:40:48.255Z,3856
2016-05-06T04:41:48.211Z,3852
2016-05-06T04:42:54.603Z,3852
2016-05-06T04:43:54.778Z,3876
2016-05-06T04:45:01.328Z,3916
2016-05-06T04:46:01.127Z,3972
2016-05-06T04:46:35.677Z,4008
2016-05-06T04:48:01.180Z,4076
2016-05-06T04:48:44.995Z,4172
2016-05-06T04:49:44.997Z,4260
2016-05-06T04:50:45.125Z,4340
2016-05-06T04:51:45.299Z,4436
2016-05-06T04:52:57.927Z,4560
2016-05-06T04:53:51.430Z,4656
2016-05-06T04:54:58.074Z,4768
2016-05-06T04:55:58.107Z,4936
2016-05-06T04:56:45.313Z,5052
2016-05-06T04:58:04.504Z,5272
2016-05-06T04:58:45.303Z,5396
2016-05-06T05:00:10.977Z,5660
2016-05-06T05:01:20.589Z,5796
2016-05-06T05:02:14.140Z,6064
2016-05-06T05:02:54.814Z,6224
2016-05-06T05:04:20.659Z,6612
2016-05-06T05:05:01.288Z,6788
2016-05-06T05:06:26.325Z,7148
2016-05-06T05:06:55.637Z,7272
2016-05-06T05:07:54.889Z,7564
2016-05-06T05:09:01.377Z,7980
2016-05-06T05:10:01.364Z,8496
2016-05-06T05:11:08.171Z,9804
2016-05-06T05:11:55.220Z,10852
2016-05-06T05:13:14.317Z,11696
2016-05-06T05:13:55.539Z,11860
2016-05-06T05:15:57.858Z,11876
2016-05-06T05:16:10.577Z,11852
2016-05-06T05:17:10.566Z,11808
2016-05-06T05:18:23.351Z,11624
2016-05-06T05:19:10.792Z,11588
2016-05-06T05:20:36.357Z,12004
2016-05-06T05:21:10.826Z,12292
2016-05-06T05:22:10.601Z,12532
2016-05-06T05:23:10.860Z,12652
2016-05-06T05:24:10.680Z,12912
2016-05-06T05:25:10.690Z,13136
2016-05-06T05:26:10.853Z,13224
2016-05-06T05:27:10.890Z,13560
2016-05-06T05:28:10.894Z,13724
2016-05-06T05:29:10.915Z,13936
2016-05-06T05:30:10.966Z,13928
2016-05-06T05:31:10.814Z,13888
2016-05-06T05:32:10.849Z,13796
2016-05-06T05:33:11.024Z,13788
2016-05-06T05:34:11.044Z,14000
2016-05-06T05:35:12.344Z,14464
2016-05-06T05:36:11.223Z,14784
2016-05-06T05:37:11.131Z,15008
2016-05-06T05:38:11.151Z,14976
2016-05-06T05:39:11.185Z,15744
2016-05-06T05:40:10.891Z,16064
2016-05-06T05:41:11.097Z,16608
2016-05-06T05:42:11.288Z,17440
2016-05-06T05:43:11.415Z,18240
2016-05-06T05:44:11.324Z,18304
2016-05-06T05:45:11.342Z,17568
2016-05-06T05:46:11.219Z,16928
2016-05-06T05:47:17.676Z,16448
2016-05-06T05:48:11.241Z,16384
2016-05-06T05:49:11.463Z,16256
2016-05-06T05:50:11.465Z,16256
2016-05-06T05:51:17.608Z,16448
2016-05-06T05:52:11.501Z,16480
2016-05-06T05:53:11.270Z,16640
2016-05-06T05:54:11.648Z,16736
2016-05-06T05:55:11.604Z,16736
2016-05-06T05:56:11.668Z,16736
2016-05-06T05:57:11.671Z,16928
2016-05-06T05:58:11.815Z,17248
2016-05-06T05:59:11.708Z,17600
2016-05-06T06:00:11.804Z,17408
2016-05-06T06:01:11.604Z,17184
2016-05-06T06:02:11.997Z,17536
2016-05-06T06:03:11.844Z,17952
2016-05-06T06:04:14.909Z,18144
2016-05-06T06:05:11.911Z,18368
2016-05-06T06:06:11.945Z,18944
2016-05-06T06:07:11.792Z,18944
2016-05-06T06:08:11.983Z,18976
2016-05-06T06:09:12.031Z,18816
2016-05-06T06:10:12.019Z,18496
2016-05-06T06:11:13.490Z,18432
2016-05-06T06:12:11.961Z,18688
2016-05-06T06:13:12.105Z,18880
2016-05-06T06:14:12.155Z,18976
2016-05-06T06:15:24.908Z,19136
2016-05-06T06:16:24.988Z,19328
2016-05-06T06:17:11.943Z,19328
2016-05-06T06:18:12.322Z,19232
2016-05-06T06:19:14.762Z,19392
2016-05-06T06:20:12.233Z,19776
2016-05-06T06:21:25.080Z,20000
2016-05-06T06:22:12.113Z,20288
2016-05-06T06:23:12.288Z,20480
2016-05-06T06:24:12.446Z,20768
2016-05-06T06:25:12.497Z,21024
2016-05-06T06:26:25.374Z,21024
2016-05-06T06:27:12.643Z,21152
2016-05-06T06:28:31.789Z,21408
2016-05-06T06:29:12.320Z,21440
2016-05-06T06:30:12.650Z,21536
2016-05-06T06:31:18.795Z,21600
2016-05-06T06:32:12.562Z,21696
2016-05-06T06:33:12.720Z,21568
2016-05-06T06:34:12.771Z,21728
2016-05-06T06:35:12.820Z,21728
2016-05-06T06:36:12.853Z,21856
2016-05-06T06:37:12.857Z,21920
2016-05-06T06:38:12.906Z,22208
2016-05-06T06:39:12.925Z,22720
2016-05-06T06:40:12.975Z,22784
2016-05-06T06:41:13.555Z,22560
2016-05-06T06:42:13.042Z,21824
2016-05-06T06:43:12.888Z,21568
2016-05-06T06:44:13.344Z,20800
2016-05-06T06:45:13.144Z,20032
2016-05-06T06:46:13.147Z,18464
2016-05-06T06:47:13.431Z,18016
2016-05-06T06:48:13.058Z,16896
2016-05-06T06:49:13.405Z,17536
2016-05-06T06:50:13.141Z,17056
2016-05-06T06:51:13.457Z,18400
2016-05-06T06:52:13.460Z,17504
2016-05-06T06:53:13.479Z,16736
2016-05-06T06:54:26.168Z,15808
2016-05-06T06:55:13.546Z,16384
2016-05-06T06:56:13.532Z,16256
2016-05-06T06:57:13.489Z,16128
2016-05-06T06:58:13.663Z,16256
2016-05-06T06:59:13.556Z,16864
2016-05-06T07:00:13.701Z,17024
2016-05-06T07:01:13.656Z,18016
2016-05-06T07:02:14.268Z,18496
2016-05-06T07:03:19.959Z,19360
2016-05-06T07:04:13.570Z,20320
2016-05-06T07:05:13.775Z,20768
2016-05-06T07:06:13.778Z,20864
2016-05-06T07:07:13.875Z,20960
2016-05-06T07:08:13.847Z,21312
2016-05-06T07:09:13.911Z,21632
2016-05-06T07:10:13.900Z,21056
2016-05-06T07:11:15.589Z,21312
2016-05-06T07:12:14.013Z,21920
2016-05-06T07:13:26.750Z,22432
2016-05-06T07:14:20.300Z,22560
2016-05-06T07:15:14.099Z,22080
2016-05-06T07:16:26.680Z,23712
2016-05-06T07:17:14.121Z,23712
2016-05-06T07:18:14.186Z,24640
2016-05-06T07:19:14.189Z,25824
2016-05-06T07:20:14.082Z,27136
2016-05-06T07:21:15.663Z,28640
2016-05-06T07:22:14.274Z,31936
2016-05-06T07:23:14.360Z,34432
2016-05-06T07:24:20.910Z,36768
2016-05-06T07:25:27.147Z,38720
2016-05-06T07:26:17.290Z,40480
2016-05-06T07:27:33.343Z,46112
2016-05-06T07:28:14.484Z,49280
2016-05-06T07:29:14.517Z,50880
2016-05-06T07:30:14.411Z,50688
2016-05-06T07:31:14.585Z,52992
2016-05-06T07:32:14.573Z,57536
2016-05-06T07:33:14.654Z,59744
2016-05-06T07:34:14.672Z,59200
2016-05-06T07:35:14.549Z,60704
2016-05-06T07:36:15.364Z,61632
2016-05-06T07:37:14.789Z,56256
2016-05-06T07:38:14.807Z,49696
2016-05-06T07:39:14.841Z,52320
2016-05-06T07:40:14.875Z,52416
2016-05-06T07:41:14.972Z,52128
2016-05-06T07:42:14.771Z,54336
2016-05-06T07:43:15.024Z,57728
2016-05-06T07:44:14.995Z,58560
2016-05-06T07:45:27.779Z,58624
2016-05-06T07:46:15.079Z,59168
2016-05-06T07:47:34.302Z,57312
2016-05-06T07:48:14.974Z,57536
2016-05-06T07:49:15.166Z,57024
2016-05-06T07:50:15.402Z,54912
2016-05-06T07:51:15.248Z,52960
2016-05-06T07:52:15.220Z,51712
2016-05-06T07:53:15.316Z,51520
2016-05-06T07:54:15.350Z,52512
2016-05-06T07:55:15.196Z,52160
2016-05-06T07:56:15.606Z,51392
2016-05-06T07:57:15.452Z,51424
2016-05-06T07:58:15.345Z,51680
2016-05-06T07:59:15.193Z,47520
2016-05-06T08:00:15.398Z,41792
2016-05-06T08:01:28.197Z,21344
2016-05-06T08:02:15.637Z,11348
2016-05-06T08:03:34.830Z,9992
2016-05-06T08:04:15.689Z,9592
2016-05-06T08:05:15.723Z,9344
2016-05-06T08:06:15.570Z,9304
2016-05-06T08:07:15.761Z,9224
2016-05-06T08:08:28.559Z,9080
2016-05-06T08:09:15.672Z,8988
2016-05-06T08:10:35.052Z,8880
2016-05-06T08:11:16.380Z,8812
2016-05-06T08:12:15.930Z,8712
2016-05-06T08:13:15.947Z,8640
2016-05-06T08:14:15.858Z,8584
2016-05-06T08:15:16.016Z,8604
2016-05-06T08:16:28.785Z,8584
2016-05-06T08:17:28.818Z,8584
2016-05-06T08:18:35.152Z,8560
2016-05-06T08:19:35.326Z,8600
2016-05-06T08:20:16.170Z,8620
2016-05-06T08:21:15.860Z,8584
2016-05-06T08:22:16.238Z,8556
2016-05-06T08:23:16.116Z,8540
2016-05-06T08:24:16.274Z,8524
2016-05-06T08:25:22.543Z,8416
2016-05-06T08:26:16.905Z,8364
2016-05-06T08:27:28.923Z,8392
2016-05-06T08:28:16.395Z,8364
2016-05-06T08:29:16.382Z,8336
2016-05-06T08:30:16.290Z,8328
2016-05-06T08:31:16.153Z,8304
2016-05-06T08:32:16.328Z,8284
2016-05-06T08:33:16.518Z,8260
2016-05-06T08:34:16.567Z,8208
2016-05-06T08:35:29.336Z,8160
2016-05-06T08:36:16.432Z,8124
2016-05-06T08:37:16.294Z,8088
2016-05-06T08:38:22.750Z,8120
2016-05-06T08:39:16.689Z,8112
2016-05-06T08:40:16.709Z,8120
2016-05-06T08:41:18.852Z,8072
2016-05-06T08:42:29.323Z,8000
2016-05-06T08:43:19.825Z,7960
2016-05-06T08:44:29.516Z,7992
2016-05-06T08:45:35.911Z,8000
2016-05-06T08:46:17.318Z,7992
2016-05-06T08:47:36.089Z,7908
2016-05-06T08:48:16.746Z,7896
2016-05-06T08:50:32.032Z,7856
2016-05-06T08:51:32.082Z,7868
2016-05-06T08:52:32.256Z,7900
2016-05-06T08:53:32.103Z,7896
2016-05-06T08:54:38.436Z,7872
2016-05-06T08:55:32.265Z,7852
2016-05-06T08:56:46.363Z,7812
2016-05-06T08:57:32.410Z,7788
2016-05-06T08:58:57.916Z,7784
2016-05-06T08:59:32.479Z,7768
2016-05-06T09:01:03.593Z,7696
2016-05-06T09:01:38.345Z,7680
2016-05-06T09:02:35.568Z,7660
2016-05-06T09:03:48.257Z,7644
2016-05-06T09:04:35.854Z,7620
2016-05-06T09:05:35.590Z,7620
2016-05-06T09:06:35.593Z,7596
2016-05-06T09:07:35.642Z,7528
2016-05-06T09:08:35.645Z,7544
2016-05-06T09:09:35.695Z,7512
2016-05-06T09:10:35.555Z,7464
2016-05-06T09:11:35.729Z,7452
2016-05-06T09:12:35.607Z,7424
2016-05-06T09:13:35.781Z,7472
2016-05-06T09:14:35.487Z,7444
2016-05-06T09:15:35.864Z,7464
2016-05-06T09:16:48.605Z,7448
2016-05-06T09:17:35.886Z,7444
2016-05-06T09:20:04.894Z,7416
2016-05-06T09:20:45.630Z,7416
2016-05-06T09:22:11.431Z,7432
2016-05-06T09:22:55.246Z,7388
2016-05-06T09:24:14.592Z,7296
2016-05-06T09:24:55.283Z,7292
2016-05-06T09:25:55.661Z,7272
2016-05-06T09:26:55.226Z,7264
2016-05-06T09:27:55.385Z,7204
2016-05-06T09:28:55.527Z,7124
2016-05-06T09:29:55.405Z,7052
2016-05-06T09:30:55.329Z,7012
2016-05-06T09:31:55.473Z,6956
2016-05-06T09:32:55.335Z,6952
2016-05-06T09:33:55.526Z,6932
2016-05-06T09:34:55.607Z,6896
2016-05-06T09:35:55.593Z,6932
2016-05-06T09:36:55.643Z,7052
2016-05-06T09:37:56.006Z,7100
2016-05-06T09:38:55.695Z,7096
2016-05-06T09:39:55.698Z,7056
2016-05-06T09:40:55.732Z,7032
2016-05-06T09:41:55.672Z,7004
2016-05-06T09:42:55.753Z,7012
2016-05-06T09:43:55.787Z,7088
2016-05-06T09:44:55.821Z,7140
2016-05-06T09:45:55.839Z,7156
2016-05-06T09:46:55.858Z,7056
2016-05-06T09:47:55.892Z,6996
2016-05-06T09:49:08.535Z,6908
2016-05-06T09:49:55.912Z,6852
2016-05-06T09:51:08.791Z,6872
2016-05-06T09:51:55.652Z,6824
2016-05-06T09:53:21.671Z,6812
2016-05-06T09:54:02.330Z,6796
2016-05-06T09:55:27.316Z,6736
2016-05-06T09:56:05.725Z,6708
2016-05-06T09:58:02.605Z,6696
2016-05-06T09:58:15.152Z,6684
2016-05-06T09:59:34.499Z,6640
2016-05-06T10:00:27.751Z,6616
2016-05-06T10:01:15.052Z,6652
2016-05-06T10:03:18.275Z,6796
2016-05-06T10:04:18.294Z,6776
2016-05-06T10:05:18.187Z,6660
2016-05-06T10:06:18.376Z,6636
2016-05-06T10:07:18.396Z,6672
2016-05-06T10:08:18.429Z,6664
2016-05-06T10:09:18.464Z,6644
2016-05-06T10:10:24.560Z,6684
2016-05-06T10:11:20.562Z,6692
2016-05-06T10:12:18.612Z,6684
2016-05-06T10:13:31.287Z,6684
2016-05-06T10:14:18.556Z,6648
2016-05-06T10:15:18.620Z,6576
2016-05-06T10:16:18.623Z,6564
2016-05-06T10:17:18.500Z,6596
2016-05-06T10:18:18.675Z,6640
2016-05-06T10:19:20.100Z,6640
2016-05-06T10:20:18.727Z,6616
2016-05-06T10:21:18.793Z,6592
2016-05-06T10:22:18.811Z,6652
2016-05-06T10:23:18.861Z,6704
2016-05-06T10:24:18.675Z,6684
2016-05-06T10:25:18.849Z,6648
2016-05-06T10:26:21.150Z,6564
2016-05-06T10:27:19.715Z,6460
2016-05-06T10:28:18.921Z,6404
2016-05-06T10:29:18.971Z,6416
2016-05-06T10:30:18.848Z,6488
2016-05-06T10:31:31.866Z,6568
2016-05-06T10:32:19.072Z,6548
2016-05-06T10:33:19.075Z,6512
2016-05-06T10:34:19.156Z,6488
2016-05-06T10:35:19.112Z,6520
2016-05-06T10:36:19.192Z,6504
2016-05-06T10:37:19.007Z,6560
2016-05-06T10:38:19.229Z,6504
2016-05-06T10:39:19.215Z,6440
2016-05-06T10:40:19.562Z,6348
2016-05-06T10:41:19.612Z,6184
2016-05-06T10:42:19.349Z,6080
2016-05-06T10:43:19.445Z,6016
2016-05-06T10:44:19.386Z,6004
2016-05-06T10:45:19.545Z,6012
2016-05-06T10:46:19.438Z,6036
2016-05-06T10:47:19.503Z,6004
2016-05-06T10:48:19.162Z,6012
2016-05-06T10:49:19.492Z,5992
2016-05-06T10:50:19.371Z,5992
2016-05-06T10:51:19.389Z,6024
2016-05-06T10:52:19.594Z,6040
2016-05-06T10:53:19.582Z,6056
2016-05-06T10:54:19.506Z,6068
2016-05-06T10:55:19.681Z,6056
2016-05-06T10:56:19.669Z,6044
2016-05-06T10:57:25.999Z,5992
2016-05-06T10:58:26.017Z,5916
2016-05-06T10:59:19.754Z,5896
2016-05-06T11:00:39.148Z,5860
2016-05-06T11:01:19.853Z,5832
2016-05-06T11:02:19.857Z,5796
2016-05-06T11:03:19.796Z,5804
2016-05-06T11:04:19.752Z,5828
2016-05-06T11:05:19.957Z,5860
2016-05-06T11:06:19.804Z,5868
2016-05-06T11:07:21.291Z,5848
2016-05-06T11:08:20.044Z,5832
2016-05-06T11:09:20.109Z,5808
2016-05-06T11:10:20.159Z,5788
2016-05-06T11:11:19.787Z,5764
2016-05-06T11:12:20.180Z,5752
2016-05-06T11:13:20.151Z,5704
2016-05-06T11:14:20.217Z,5712
2016-05-06T11:15:20.032Z,5704
2016-05-06T11:16:20.237Z,5672
2016-05-06T11:17:20.272Z,5652
2016-05-06T11:18:20.150Z,5636
2016-05-06T11:19:20.292Z,5624
2016-05-06T11:20:20.217Z,5608
2016-05-06T11:21:20.376Z,5604
2016-05-06T11:22:21.082Z,5600
2016-05-06T11:23:20.413Z,5596
2016-05-06T11:24:20.446Z,5624
2016-05-06T11:25:20.575Z,5628
2016-05-06T11:26:21.983Z,5624
2016-05-06T11:27:20.830Z,5572
2016-05-06T11:28:20.552Z,5544
2016-05-06T11:29:20.788Z,5552
2016-05-06T11:30:20.603Z,5620
2016-05-06T11:31:26.778Z,5616
2016-05-06T11:32:20.515Z,5548
2016-05-06T11:33:26.986Z,5492
2016-05-06T11:34:20.724Z,5456
2016-05-06T11:35:20.741Z,5436
2016-05-06T11:36:20.589Z,5436
2016-05-06T11:37:20.826Z,5476
2016-05-06T11:38:20.843Z,5612
2016-05-06T11:39:20.847Z,5616
2016-05-06T11:40:20.912Z,5536
2016-05-06T11:41:33.633Z,5548
2016-05-06T11:42:21.229Z,5552
2016-05-06T11:43:40.826Z,5572
2016-05-06T11:44:21.001Z,5576
2016-05-06T11:45:46.831Z,5588
2016-05-06T11:46:21.271Z,5596
2016-05-06T11:47:47.118Z,5644
2016-05-06T11:48:27.636Z,5672
2016-05-06T11:49:21.076Z,5692
2016-05-06T11:50:21.095Z,5684
2016-05-06T11:51:21.270Z,5628
2016-05-06T11:52:34.037Z,5620
2016-05-06T11:53:21.869Z,5620
2016-05-06T11:57:25.254Z,5384
2016-05-06T11:57:40.535Z,5416
2016-05-06T11:58:40.429Z,5412
2016-05-06T11:59:40.572Z,5436
2016-05-06T12:00:40.887Z,5392
2016-05-06T12:01:53.377Z,5360
2016-05-06T12:02:40.736Z,5296
2016-05-06T12:03:59.773Z,5208
2016-05-06T12:04:46.804Z,5172
2016-05-06T12:05:59.935Z,5060
2016-05-06T12:06:43.904Z,5236
2016-05-06T12:07:43.796Z,5236
2016-05-06T12:08:43.831Z,5176
2016-05-06T12:09:43.865Z,5192
2016-05-06T12:10:43.758Z,5200
2016-05-06T12:11:44.495Z,5228
2016-05-06T12:12:43.920Z,5160
2016-05-06T12:13:45.532Z,5168
2016-05-06T12:14:43.987Z,5180
2016-05-06T12:15:44.162Z,5164
2016-05-06T12:16:44.195Z,5148
2016-05-06T12:17:44.074Z,5108
2016-05-06T12:18:44.217Z,5112
2016-05-06T12:19:44.126Z,5112
2016-05-06T12:20:44.410Z,5092
2016-05-06T12:21:44.319Z,5096
2016-05-06T12:22:44.197Z,5048
2016-05-06T12:23:44.371Z,5024
2016-05-06T12:24:44.264Z,5008
2016-05-06T12:25:44.126Z,4976
2016-05-06T12:26:45.364Z,4956
2016-05-06T12:27:44.492Z,4944
2016-05-06T12:28:45.103Z,4992
2016-05-06T12:29:44.511Z,5012
2016-05-06T12:30:44.422Z,5012
2016-05-06T12:31:44.611Z,5016
2016-05-06T12:32:44.505Z,5016
2016-05-06T12:33:44.680Z,5004
2016-05-06T12:34:51.057Z,5012
2016-05-06T12:35:57.452Z,4980
2016-05-06T12:36:44.749Z,4984
2016-05-06T12:37:44.769Z,4992
2016-05-06T12:38:44.786Z,4988
2016-05-06T12:39:44.679Z,4984
2016-05-06T12:40:44.839Z,4992
2016-05-06T12:41:45.263Z,4984
2016-05-06T12:42:44.750Z,4980
2016-05-06T12:43:57.646Z,4968
2016-05-06T12:44:45.021Z,4956
2016-05-06T12:45:45.430Z,4940
2016-05-06T12:46:57.639Z,4972
2016-05-06T12:48:04.220Z,4988
2016-05-06T12:50:13.882Z,4996
2016-05-06T12:50:54.632Z,5004
2016-05-06T12:52:57.389Z,5004
2016-05-06T12:53:45.858Z,5004
2016-05-06T12:54:10.111Z,4980
2016-05-06T12:55:19.504Z,5008
2016-05-06T12:56:16.709Z,5012
2016-05-06T12:57:10.056Z,5036
2016-05-06T12:58:10.215Z,5040
2016-05-06T12:59:10.093Z,5008
2016-05-06T13:00:10.283Z,4956
2016-05-06T13:01:10.302Z,4936
2016-05-06T13:02:22.867Z,4920
2016-05-06T13:03:10.213Z,4924
2016-05-06T13:04:10.372Z,4920
2016-05-06T13:05:10.438Z,4936
2016-05-06T13:06:10.408Z,4976
2016-05-06T13:07:11.177Z,4972
2016-05-06T13:08:12.633Z,4948
2016-05-06T13:09:10.213Z,4928
2016-05-06T13:10:10.576Z,4936
2016-05-06T13:11:11.625Z,4960
2016-05-06T13:12:11.377Z,5004
2016-05-06T13:13:10.646Z,5040
2016-05-06T13:14:23.399Z,5052
2016-05-06T13:15:10.699Z,5068
2016-05-06T13:16:10.560Z,5100
2016-05-06T13:17:10.610Z,5116
2016-05-06T13:18:10.629Z,5116
2016-05-06T13:19:10.851Z,5108
2016-05-06T13:20:10.524Z,5104
2016-05-06T13:21:10.668Z,5116
2016-05-06T13:22:10.905Z,5120
2016-05-06T13:23:10.783Z,5104
2016-05-06T13:24:10.942Z,5112
2016-05-06T13:25:10.975Z,5096
2016-05-06T13:26:11.712Z,5084
2016-05-06T13:27:11.418Z,5060
2016-05-06T13:28:11.078Z,5036
2016-05-06T13:29:30.283Z,5012
2016-05-06T13:30:11.098Z,4988
2016-05-06T13:31:11.148Z,4988
2016-05-06T13:32:11.151Z,4980
2016-05-06T13:33:23.997Z,4976
2016-05-06T13:34:11.047Z,4964
2016-05-06T13:35:30.158Z,4960
2016-05-06T13:36:11.287Z,4936
2016-05-06T13:37:11.460Z,4924
2016-05-06T13:38:11.322Z,4920
2016-05-06T13:39:11.357Z,4908
2016-05-06T13:40:11.391Z,4892
2016-05-06T13:41:11.424Z,4876
2016-05-06T13:42:11.505Z,4876
2016-05-06T13:43:11.461Z,4864
2016-05-06T13:44:11.449Z,4860
2016-05-06T13:45:11.513Z,4848
2016-05-06T13:46:11.563Z,4844
2016-05-06T13:47:11.565Z,4856
2016-05-06T13:48:11.646Z,4848